createdAt,value
2022-08-20T00:03:09.341Z,77.55
2022-08-20T00:08:13.130Z,80.34
2022-08-20T00:13:21.756Z,82.01
2022-08-20T00:18:24.634Z,83.13
2022-08-20T00:23:27.442Z,84.48
2022-08-20T00:28:30.258Z,85.86
2022-08-20T00:33:33.313Z,86.82
2022-08-20T00:38:37.947Z,88.36
2022-08-20T00:43:48.473Z,90.88
2022-08-20T00:48:55.871Z,92.46
2022-08-20T00:54:22.893Z,93.62
2022-08-20T00:59:31.027Z,95.80
2022-08-20T01:04:35.649Z,96.26
2022-08-20T01:09:58.155Z,96.32
2022-08-20T01:15:04.778Z,96.59
2022-08-20T01:20:16.015Z,97.08
2022-08-20T01:25:44.512Z,98.31
2022-08-20T01:30:47.205Z,98.92
2022-08-20T01:35:50.543Z,99.54
2022-08-20T01:41:30.513Z,99.73
2022-08-20T01:46:38.142Z,99.99
2022-08-20T01:51:46.778Z,100.00
2022-08-20T01:57:02.401Z,100.00
2022-08-20T02:02:07.206Z,100.00
2022-08-20T02:07:18.939Z,100.00
2022-08-20T02:12:21.678Z,100.00
2022-08-20T02:17:25.975Z,100.00
2022-08-20T02:22:40.584Z,100.00
2022-08-20T02:27:49.641Z,100.00
2022-08-20T02:32:52.395Z,100.00
2022-08-20T02:37:59.216Z,100.00
2022-08-20T02:43:04.543Z,100.00
2022-08-20T02:48:07.398Z,100.00
2022-08-20T02:53:10.082Z,100.00
2022-08-20T02:58:13.207Z,100.00
2022-08-20T03:03:22.514Z,100.00
2022-08-20T03:08:27.296Z,100.00
2022-08-20T03:13:30.080Z,100.00
2022-08-20T03:18:37.523Z,100.00
2022-08-20T03:23:41.022Z,100.00
2022-08-20T03:28:44.369Z,100.00
2022-08-20T03:33:52.980Z,100.00
2022-08-20T03:39:03.477Z,100.00
2022-08-20T03:44:07.192Z,100.00
2022-08-20T03:49:10.301Z,100.00
2022-08-20T03:54:13.104Z,100.00
2022-08-20T03:59:15.813Z,100.00
2022-08-20T04:04:18.528Z,100.00
2022-08-20T04:09:21.304Z,100.00
2022-08-20T04:14:23.983Z,100.00
2022-08-20T04:19:30.135Z,100.00
2022-08-20T04:24:35.711Z,100.00
2022-08-20T04:29:43.119Z,100.00
2022-08-20T04:34:47.330Z,100.00
2022-08-20T04:40:26.543Z,100.00
2022-08-20T04:45:29.213Z,100.00
2022-08-20T04:50:36.533Z,100.00
2022-08-20T04:55:42.903Z,100.00
2022-08-20T05:00:48.302Z,100.00
2022-08-20T05:05:52.022Z,100.00
2022-08-20T05:10:58.126Z,100.00
2022-08-20T05:16:19.494Z,100.00
2022-08-20T05:21:22.217Z,100.00
2022-08-20T05:26:26.528Z,100.00
2022-08-20T05:31:31.713Z,100.00
2022-08-20T05:36:37.213Z,100.00
2022-08-20T05:41:40.980Z,100.00
2022-08-20T05:46:45.523Z,100.00
2022-08-20T05:51:51.090Z,100.00
2022-08-20T05:56:53.949Z,100.00
2022-08-20T06:01:56.645Z,99.70
2022-08-20T06:07:05.408Z,98.58
2022-08-20T06:12:09.471Z,97.75
2022-08-20T06:17:15.350Z,96.43
2022-08-20T06:22:23.282Z,94.99
2022-08-20T06:27:29.658Z,94.02
2022-08-20T06:32:33.840Z,92.64
2022-08-20T06:37:39.417Z,91.08
2022-08-20T06:42:48.073Z,90.35
2022-08-20T06:47:53.912Z,88.83
2022-08-20T06:52:57.003Z,87.61
2022-08-20T06:58:02.726Z,86.77
2022-08-20T07:03:05.751Z,85.85
2022-08-20T07:08:14.662Z,84.73
2022-08-20T07:13:17.547Z,83.16
2022-08-20T07:18:28.416Z,81.86
2022-08-20T07:23:31.803Z,79.90
2022-08-20T07:28:34.736Z,78.56
2022-08-20T07:33:40.660Z,77.41
2022-08-20T07:38:46.757Z,77.22
2022-08-20T07:43:49.494Z,76.01
2022-08-20T07:48:52.310Z,75.43
2022-08-20T07:53:55.095Z,74.26
2022-08-20T07:58:59.943Z,73.36
2022-08-20T08:04:03.150Z,71.79
2022-08-20T08:09:09.813Z,70.31
2022-08-20T08:14:13.349Z,69.94
2022-08-20T08:19:18.364Z,70.54
2022-08-20T08:24:25.314Z,70.61
2022-08-20T08:29:30.699Z,69.73
2022-08-20T08:34:36.500Z,70.60
2022-08-20T08:39:39.277Z,70.23
2022-08-20T08:44:42.264Z,70.50
2022-08-20T08:49:47.567Z,70.69
2022-08-20T08:54:56.511Z,70.32
2022-08-20T09:00:03.913Z,69.93
2022-08-20T09:05:17.828Z,68.57
2022-08-20T09:10:22.970Z,67.46
2022-08-20T09:15:26.300Z,65.82
2022-08-20T09:20:29.265Z,65.12
2022-08-20T09:25:32.085Z,64.38
2022-08-20T09:30:35.054Z,63.17
2022-08-20T09:35:40.452Z,61.19
2022-08-20T09:40:43.382Z,60.36
2022-08-20T09:45:46.075Z,59.51
2022-08-20T09:50:50.208Z,58.52
2022-08-20T09:55:56.056Z,58.14
2022-08-20T10:01:07.362Z,57.51
2022-08-20T10:06:19.945Z,57.24
2022-08-20T10:11:22.775Z,57.26
2022-08-20T10:16:25.509Z,58.15
2022-08-20T10:21:30.097Z,58.44
2022-08-20T10:26:33.114Z,58.59
2022-08-20T10:31:35.849Z,58.56
2022-08-20T10:36:38.580Z,58.89
2022-08-20T10:41:41.607Z,59.27
2022-08-20T10:46:45.868Z,59.78
2022-08-20T10:51:48.607Z,60.00
2022-08-20T10:56:51.457Z,59.78
2022-08-20T11:01:54.240Z,59.25
2022-08-20T11:06:57.009Z,59.20
2022-08-20T11:11:59.810Z,59.15
2022-08-20T11:17:03.206Z,58.52
2022-08-20T11:22:05.919Z,57.48
2022-08-20T11:27:09.780Z,56.73
2022-08-20T11:32:12.581Z,56.07
2022-08-20T11:37:17.202Z,54.80
2022-08-20T11:42:20.161Z,53.55
2022-08-20T11:47:26.875Z,52.48
2022-08-20T11:52:30.119Z,52.14
2022-08-20T11:57:35.360Z,51.90
2022-08-20T12:02:38.130Z,51.90
2022-08-20T12:07:41.537Z,53.21
2022-08-20T12:12:44.335Z,52.68
2022-08-20T12:17:47.272Z,51.91
2022-08-20T12:22:50.189Z,52.08
2022-08-20T12:27:53.113Z,52.49
2022-08-20T12:32:56.025Z,53.06
2022-08-20T12:38:02.312Z,52.53
2022-08-20T12:43:05.595Z,52.26
2022-08-20T12:48:11.687Z,52.02
2022-08-20T12:53:14.422Z,51.90
2022-08-20T12:58:17.098Z,51.74
2022-08-20T13:03:22.073Z,52.03
2022-08-20T13:08:24.793Z,51.64
2022-08-20T13:13:27.629Z,51.32
2022-08-20T13:18:30.429Z,50.63
2022-08-20T13:23:33.121Z,52.02
2022-08-20T13:28:36.166Z,51.24
2022-08-20T13:33:38.878Z,50.64
2022-08-20T13:38:41.631Z,50.59
2022-08-20T13:43:44.326Z,50.37
2022-08-20T13:48:47.018Z,50.93
2022-08-20T13:53:49.785Z,50.62
2022-08-20T13:58:53.117Z,51.00
2022-08-20T14:03:56.018Z,51.35
2022-08-20T14:08:58.965Z,51.81
2022-08-20T14:14:02.747Z,53.07
2022-08-20T14:19:06.071Z,54.61
2022-08-20T14:24:08.796Z,56.20
2022-08-20T14:29:11.523Z,59.39
2022-08-20T14:34:14.237Z,61.78
2022-08-20T14:39:20.517Z,63.78
2022-08-20T14:44:23.411Z,65.13
2022-08-20T14:49:26.203Z,65.13
2022-08-20T14:54:29.082Z,67.54
2022-08-20T14:59:32.158Z,68.07
2022-08-20T15:04:36.061Z,69.02
2022-08-20T15:09:39.011Z,69.98
2022-08-20T15:14:41.718Z,70.99
2022-08-20T15:19:44.666Z,71.60
2022-08-20T15:24:48.341Z,71.59
2022-08-20T15:29:52.464Z,72.50
2022-08-20T15:34:55.175Z,72.35
2022-08-20T15:39:57.913Z,72.54
2022-08-20T15:45:00.730Z,72.87
2022-08-20T15:50:09.374Z,72.64
2022-08-20T15:55:17.850Z,73.27
2022-08-20T16:00:25.812Z,73.87
2022-08-20T16:05:50.486Z,74.53
2022-08-20T16:11:18.449Z,76.28
2022-08-20T16:16:33.284Z,79.30
2022-08-20T16:21:40.435Z,82.74
2022-08-20T16:27:13.423Z,85.58
2022-08-20T16:32:25.868Z,87.95
2022-08-20T16:37:33.187Z,90.70
2022-08-20T16:42:42.426Z,92.59
2022-08-20T16:47:46.955Z,93.61
2022-08-20T16:52:51.785Z,94.21
2022-08-20T16:57:54.948Z,94.67
2022-08-20T17:03:01.632Z,95.01
2022-08-20T17:08:07.450Z,96.30
2022-08-20T17:13:15.996Z,98.15
2022-08-20T17:18:27.542Z,99.37
2022-08-20T17:23:31.027Z,100.00
2022-08-20T17:28:35.704Z,100.00
2022-08-20T17:33:39.662Z,100.00
2022-08-20T17:38:52.870Z,100.00
2022-08-20T17:44:07.717Z,100.00
2022-08-20T17:49:13.108Z,100.00
2022-08-20T17:54:27.301Z,100.00
2022-08-20T18:00:00.925Z,100.00
2022-08-20T18:05:06.662Z,100.00
2022-08-20T18:10:14.502Z,100.00
2022-08-20T18:15:23.764Z,100.00
2022-08-20T18:20:37.758Z,100.00
2022-08-20T18:25:54.886Z,100.00
2022-08-20T18:31:02.112Z,100.00
2022-08-20T18:36:07.115Z,100.00
2022-08-20T18:41:30.061Z,100.00
2022-08-20T18:46:34.043Z,100.00
2022-08-20T18:51:42.616Z,100.00
2022-08-20T18:56:45.286Z,100.00
2022-08-20T19:01:49.515Z,100.00
2022-08-20T19:06:58.044Z,100.00
2022-08-20T19:12:05.139Z,100.00
2022-08-20T19:17:15.065Z,100.00
2022-08-20T19:22:20.898Z,100.00
2022-08-20T19:27:24.697Z,100.00
2022-08-20T19:32:33.010Z,100.00
2022-08-20T19:37:50.839Z,100.00
2022-08-20T19:42:56.227Z,100.00
2022-08-20T19:48:27.385Z,100.00
2022-08-20T19:53:33.412Z,100.00
2022-08-20T19:58:37.494Z,100.00
2022-08-20T20:03:40.677Z,100.00
2022-08-20T20:08:55.094Z,100.00
2022-08-20T20:14:04.518Z,100.00
2022-08-20T20:19:25.847Z,100.00
2022-08-20T20:24:31.652Z,100.00
2022-08-20T20:29:37.041Z,100.00
2022-08-20T20:34:55.066Z,100.00
2022-08-20T20:40:19.062Z,100.00
2022-08-20T20:45:32.154Z,100.00
2022-08-20T20:50:36.899Z,100.00
2022-08-20T20:55:41.911Z,100.00
2022-08-20T21:00:44.596Z,100.00
2022-08-20T21:05:47.535Z,100.00
2022-08-20T21:10:50.280Z,100.00
2022-08-20T21:15:53.038Z,100.00
2022-08-20T21:20:55.821Z,100.00
2022-08-20T21:26:00.124Z,100.00
2022-08-20T21:31:03.145Z,100.00
2022-08-20T21:36:06.402Z,100.00
2022-08-20T21:41:09.210Z,100.00
2022-08-20T21:46:12.735Z,100.00
2022-08-20T21:51:15.656Z,100.00
2022-08-20T21:56:18.527Z,100.00
2022-08-20T22:01:21.574Z,100.00
2022-08-20T22:06:24.972Z,100.00
2022-08-20T22:11:28.195Z,100.00
2022-08-20T22:16:30.972Z,100.00
2022-08-20T22:21:35.245Z,100.00
2022-08-20T22:26:40.334Z,100.00
2022-08-20T22:31:44.040Z,100.00
2022-08-20T22:36:48.054Z,100.00
2022-08-20T22:41:50.986Z,100.00
2022-08-20T22:46:56.795Z,100.00
2022-08-20T22:52:00.218Z,100.00
2022-08-20T22:57:03.439Z,100.00
2022-08-20T23:02:12.924Z,100.00
2022-08-20T23:07:17.990Z,100.00
2022-08-20T23:12:20.782Z,100.00
2022-08-20T23:17:23.745Z,100.00
2022-08-20T23:22:26.602Z,100.00
2022-08-20T23:27:29.689Z,100.00
2022-08-20T23:32:32.383Z,100.00
2022-08-20T23:37:40.300Z,100.00
2022-08-20T23:42:43.277Z,100.00
2022-08-20T23:47:46.380Z,100.00
2022-08-20T23:52:49.245Z,100.00
2022-08-20T23:57:52.370Z,100.00
